EST,Max TemperatureF,Mean TemperatureF,Min TemperatureF,Max Dew PointF,MeanDew PointF,Min DewpointF,Max Humidity, Mean Humidity, Min Humidity, Max Sea Level PressureIn, Mean Sea Level PressureIn, Min Sea Level PressureIn, Max VisibilityMiles, Mean VisibilityMiles, Min VisibilityMiles, Max Wind SpeedMPH, Mean Wind SpeedMPH, Max Gust SpeedMPH,PrecipitationIn, CloudCover, Events, WindDirDegrees
2013-1-1,32,28,23,29,26,16,92,82,72,30.11,30.03,29.96,10,5,1,12,7,16,0.03,8,Snow,264
2013-1-2,26,21,16,16,11,9,80,65,50,30.26,30.18,30.07,10,10,10,14,5,18,0.00,3,,253
2013-1-3,33,23,12,18,14,9,92,71,49,30.27,30.23,30.17,10,9,7,24,9,32,0.00,3,,237
2013-1-4,32,30,27,20,18,16,75,65,54,30.30,30.24,30.17,10,10,10,26,15,39,0.00,4,,254
2013-1-5,36,29,22,23,20,16,81,69,56,30.41,30.30,30.17,10,10,10,16,8,22,0.00,3,,216
2013-1-6,37,35,32,31,27,23,89,74,59,30.26,30.10,30.01,10,9,7,18,10,23,T,8,Snow,244
2013-1-7,32,28,24,25,23,20,85,74,63,30.50,30.39,30.29,8,5,3,15,7,20,0.00,6,,224
2013-1-8,45,33,21,28,24,19,92,71,49,30.38,30.34,30.29,10,9,5,10,6,17,0.00,0,,171
2013-1-9,47,41,35,39,32,24,83,68,53,30.51,30.32,30.25,10,10,7,17,11,25,0.03,3,Rain,217
2013-1-10,40,34,28,29,27,26,85,72,59,30.61,30.49,30.28,10,10,7,15,6,26,0.00,0,,82
2013-1-11,56,48,40,54,46,27,96,75,53,30.25,30.05,29.95,10,10,2,21,9,31,0.15,6,Rain,180
2013-1-12,64,59,54,55,54,52,100,82,63,30.09,30.03,29.93,10,10,6,14,8,18,T,5,,200
2013-1-13,67,62,57,55,54,53,93,80,67,29.94,29.89,29.85,10,10,7,22,12,30,0.10,5,Rain,198
2013-1-14,58,44,29,55,31,21,92,76,59,30.38,30.21,29.91,10,10,6,28,8,40,0.01,6,Rain,310
2013-1-15,31,28,24,27,22,19,85,74,63,30.41,30.26,30.05,10,9,4,14,7,17,0.09,3,Rain,30
2013-1-16,33,32,30,31,29,27,100,93,85,30.05,29.97,29.89,10,4,0,16,7,23,0.17,7,Fog-Rain,255
2013-1-17,33,32,30,29,27,25,92,89,85,30.22,30.14,30.07,10,7,5,17,6,24,0.00,5,,244
2013-1-18,33,26,18,19,14,8,78,64,49,30.53,30.41,30.26,10,10,10,22,11,30,0.00,1,,237
2013-1-19,52,43,33,22,18,15,51,38,24,30.25,30.07,29.86,10,10,10,26,17,37,0.00,0,,219
2013-1-20,46,35,23,28,16,9,59,48,37,30.17,30.02,29.82,10,10,10,40,17,54,0.00,2,,262
2013-1-21,25,18,10,16,10,-2,70,63,55,30.13,30.00,29.90,10,7,0,25,12,36,T,8,Snow,263
2013-1-22,14,10,6,-2,-4,-6,63,55,46,30.33,30.26,30.14,10,10,9,23,12,29,0.00,4,,268
2013-1-23,17,11,5,12,1,-3,73,60,46,30.35,30.25,30.03,10,9,2,15,7,20,T,5,Snow,247
2013-1-24,23,18,12,12,8,-3,88,64,39,30.58,30.35,30.02,10,6,0,18,7,23,T,6,Snow,317
2013-1-25,19,15,11,16,10,2,84,71,58,30.52,30.16,29.99,10,5,0,16,5,18,0.09,7,Fog-Snow,98
2013-1-26,27,23,19,21,17,12,92,76,59,30.48,30.23,30.07,10,5,1,16,7,20,0.01,8,Snow,268
2013-1-27,31,21,11,18,14,10,92,73,53,30.56,30.47,30.33,10,10,7,13,5,21,0.00,2,,106
2013-1-28,50,40,30,49,39,20,100,79,58,30.30,30.11,30.01,10,4,1,18,11,26,0.39,8,Rain,202
2013-1-29,66,58,50,54,50,48,100,80,60,30.07,29.99,29.80,10,5,0,21,11,28,0.02,5,Fog-Rain,211
2013-1-30,68,54,40,55,51,37,93,75,56,29.73,29.44,29.24,10,8,0,44,17,62,1.03,6,Rain,193
2013-1-31,40,31,21,36,19,11,88,69,50,29.89,29.69,29.34,10,6,0,38,18,53,0.02,8,Fog-Rain-Snow,259